createdAt,value
2018-06-02T00:01:22.875Z,25.37
2018-06-02T00:03:50.447Z,24.80
2018-06-02T00:06:18.034Z,25.70
2018-06-02T00:08:45.570Z,26.20
2018-06-02T00:11:13.129Z,25.93
2018-06-02T00:13:40.667Z,27.80
2018-06-02T00:16:08.207Z,28.30
2018-06-02T00:18:35.758Z,27.37
2018-06-02T00:21:04.132Z,26.73
2018-06-02T00:23:31.702Z,26.80
2018-06-02T00:26:00.037Z,27.13
2018-06-02T00:28:27.593Z,28.43
2018-06-02T00:30:55.126Z,27.73
2018-06-02T00:33:22.688Z,28.17
2018-06-02T00:35:50.227Z,29.33
2018-06-02T00:38:17.770Z,27.67
2018-06-02T00:40:46.249Z,27.17
2018-06-02T00:43:13.807Z,28.83
2018-06-02T00:45:42.114Z,29.70
2018-06-02T00:48:09.735Z,30.50
2018-06-02T00:50:37.264Z,31.07
2018-06-02T00:53:04.904Z,31.37
2018-06-02T00:55:32.456Z,32.97
2018-06-02T00:58:00.126Z,34.87
2018-06-02T01:00:27.661Z,36.20
2018-06-02T01:02:55.231Z,39.67
2018-06-02T01:05:22.789Z,41.93
2018-06-02T01:07:50.318Z,41.03
2018-06-02T01:10:17.859Z,43.87
2018-06-02T01:12:45.399Z,43.27
2018-06-02T01:15:12.927Z,42.30
2018-06-02T01:17:40.477Z,43.23
2018-06-02T01:20:08.035Z,41.80
2018-06-02T01:22:35.598Z,41.23
2018-06-02T01:25:03.147Z,39.10
2018-06-02T01:27:30.705Z,42.10
2018-06-02T01:29:58.319Z,39.43
2018-06-02T01:32:25.999Z,41.10
2018-06-02T01:34:53.645Z,40.53
2018-06-02T01:37:21.173Z,40.50
2018-06-02T01:39:48.729Z,38.83
2018-06-02T01:42:16.273Z,38.83
2018-06-02T01:44:44.578Z,36.10
2018-06-02T01:47:12.133Z,34.90
2018-06-02T01:49:39.683Z,35.77
2018-06-02T01:52:07.215Z,35.30
2018-06-02T01:54:34.775Z,36.57
2018-06-02T01:57:02.355Z,36.87
2018-06-02T01:59:30.198Z,37.07
2018-06-02T02:01:57.725Z,38.23
2018-06-02T02:04:25.259Z,40.73
2018-06-02T02:06:52.799Z,40.90
2018-06-02T02:09:20.323Z,41.30
2018-06-02T02:11:48.619Z,41.93
2018-06-02T02:14:16.157Z,44.33
2018-06-02T02:16:43.696Z,43.13
2018-06-02T02:19:11.235Z,40.87
2018-06-02T02:21:38.769Z,41.23
2018-06-02T02:24:06.346Z,36.97
2018-06-02T02:26:33.870Z,33.20
2018-06-02T02:29:01.435Z,31.17
2018-06-02T02:31:28.967Z,32.33
2018-06-02T02:33:56.530Z,28.57
2018-06-02T02:36:24.837Z,26.73
2018-06-02T02:38:52.369Z,26.03
2018-06-02T02:41:19.897Z,27.80
2018-06-02T02:43:47.445Z,26.43
2018-06-02T02:46:14.971Z,30.23
2018-06-02T02:48:42.521Z,31.60
2018-06-02T02:51:10.072Z,32.53
2018-06-02T02:53:37.608Z,32.97
2018-06-02T02:56:05.925Z,30.97
2018-06-02T02:58:33.487Z,34.53
2018-06-02T03:01:01.039Z,33.17
2018-06-02T03:03:28.613Z,32.77
2018-06-02T03:05:56.140Z,34.03
2018-06-02T03:08:23.679Z,32.50
2018-06-02T03:10:52.021Z,31.23
2018-06-02T03:13:19.558Z,29.97
2018-06-02T03:15:47.091Z,28.20
2018-06-02T03:18:14.614Z,28.43
2018-06-02T03:20:42.144Z,28.23
2018-06-02T03:23:09.695Z,28.37
2018-06-02T03:25:38.089Z,29.73
2018-06-02T03:28:05.645Z,31.67
2018-06-02T03:30:33.167Z,30.03
2018-06-02T03:33:00.729Z,31.67
2018-06-02T03:35:28.271Z,30.53
2018-06-02T03:37:56.628Z,30.70
2018-06-02T03:40:24.189Z,32.37
2018-06-02T03:42:51.723Z,31.93
2018-06-02T03:45:19.291Z,32.90
2018-06-02T03:47:46.839Z,33.63
2018-06-02T03:50:14.368Z,33.27
2018-06-02T03:52:41.915Z,34.40
2018-06-02T03:55:10.197Z,35.67
2018-06-02T03:57:37.729Z,33.33
2018-06-02T04:00:05.328Z,33.07
2018-06-02T04:02:32.864Z,32.33
2018-06-02T04:05:00.428Z,31.13
2018-06-02T04:07:28.751Z,31.47
2018-06-02T04:09:56.296Z,32.90
2018-06-02T04:12:23.872Z,37.67
2018-06-02T04:14:51.430Z,36.03
2018-06-02T04:17:18.967Z,38.13
2018-06-02T04:19:46.502Z,39.03
2018-06-02T04:22:14.040Z,36.93
2018-06-02T04:24:42.337Z,32.90
2018-06-02T04:27:09.880Z,32.43
2018-06-02T04:29:37.421Z,31.27
2018-06-02T04:32:04.977Z,30.87
2018-06-02T04:34:32.543Z,31.60
2018-06-02T04:37:00.080Z,30.13
2018-06-02T04:39:27.610Z,28.90
2018-06-02T04:41:55.155Z,28.80
2018-06-02T04:44:22.714Z,28.57
2018-06-02T04:46:50.278Z,28.23
2018-06-02T04:49:17.903Z,28.80
2018-06-02T04:51:45.471Z,29.17
2018-06-02T04:54:13.818Z,28.17
2018-06-02T04:56:41.329Z,29.50
2018-06-02T04:59:08.872Z,30.97
2018-06-02T05:01:36.412Z,30.60
2018-06-02T05:04:03.969Z,30.37
2018-06-02T05:06:31.509Z,31.33
2018-06-02T05:08:59.050Z,30.20
2018-06-02T05:11:26.608Z,31.60
2018-06-02T05:13:54.155Z,32.13
2018-06-02T05:16:21.690Z,30.90
2018-06-02T05:18:49.244Z,30.77
2018-06-02T05:21:17.563Z,30.93
2018-06-02T05:23:45.101Z,35.00
2018-06-02T05:26:12.640Z,34.70
2018-06-02T05:28:40.990Z,34.60
2018-06-02T05:31:08.502Z,34.50
2018-06-02T05:33:36.065Z,35.63
2018-06-02T05:36:03.599Z,31.80
2018-06-02T05:38:31.141Z,33.53
2018-06-02T05:40:58.685Z,31.57
2018-06-02T05:43:26.245Z,32.67
2018-06-02T05:45:53.782Z,34.17
2018-06-02T05:48:21.343Z,36.37
2018-06-02T05:50:48.873Z,34.00
2018-06-02T05:53:16.400Z,35.47
2018-06-02T05:55:44.690Z,34.80
2018-06-02T05:58:12.268Z,35.83
2018-06-02T06:00:39.808Z,34.17
2018-06-02T06:03:07.331Z,33.63
2018-06-02T06:05:34.876Z,34.43
2018-06-02T06:08:02.429Z,33.40
2018-06-02T06:10:29.950Z,36.17
2018-06-02T06:12:57.488Z,33.97
2018-06-02T06:15:25.778Z,34.00
2018-06-02T06:17:53.320Z,32.20
2018-06-02T06:20:21.636Z,32.77
2018-06-02T06:22:49.169Z,33.50
2018-06-02T06:25:16.722Z,31.90
2018-06-02T06:27:45.037Z,30.00
2018-06-02T06:30:12.564Z,29.70
2018-06-02T06:32:40.107Z,28.67
2018-06-02T06:35:08.438Z,27.97
2018-06-02T06:37:35.995Z,26.73
2018-06-02T06:40:03.554Z,27.33
2018-06-02T06:42:31.114Z,25.87
2018-06-02T06:44:58.650Z,25.67
2018-06-02T06:47:26.195Z,25.47
2018-06-02T06:49:53.755Z,25.77
2018-06-02T06:52:21.293Z,27.10
2018-06-02T06:54:49.594Z,28.87
2018-06-02T06:57:17.145Z,28.93
2018-06-02T06:59:44.715Z,29.40
2018-06-02T07:02:12.224Z,30.20
2018-06-02T07:04:39.756Z,30.30
2018-06-02T07:07:07.305Z,30.90
2018-06-02T07:09:34.851Z,30.67
2018-06-02T07:12:02.470Z,31.30
2018-06-02T07:14:30.085Z,30.90
2018-06-02T07:16:57.615Z,32.03
2018-06-02T07:19:25.147Z,32.23
2018-06-02T07:21:52.679Z,32.67
2018-06-02T07:24:20.209Z,32.40
2018-06-02T07:26:47.753Z,32.23
2018-06-02T07:29:15.277Z,32.23
2018-06-02T07:31:42.848Z,31.33
2018-06-02T07:34:11.987Z,31.00
2018-06-02T07:36:39.526Z,32.57
2018-06-02T07:39:07.073Z,32.80
2018-06-02T07:41:34.640Z,31.13
2018-06-02T07:44:02.204Z,29.73
2018-06-02T07:46:29.773Z,29.23
2018-06-02T07:48:57.316Z,29.33
2018-06-02T07:51:24.967Z,27.73
2018-06-02T07:53:52.498Z,27.17
2018-06-02T07:56:20.029Z,26.27
2018-06-02T07:58:47.579Z,24.90
2018-06-02T08:01:15.139Z,22.83
2018-06-02T08:03:42.684Z,23.60
2018-06-02T08:06:10.258Z,22.20
2018-06-02T08:08:37.792Z,22.57
2018-06-02T08:11:05.357Z,22.10
2018-06-02T08:13:32.972Z,21.33
2018-06-02T08:16:00.529Z,21.80
2018-06-02T08:18:28.079Z,21.60
2018-06-02T08:20:55.637Z,22.13
2018-06-02T08:23:23.238Z,23.40
2018-06-02T08:25:51.532Z,22.00
2018-06-02T08:28:19.063Z,21.77
2018-06-02T08:30:46.658Z,22.47
2018-06-02T08:33:14.189Z,22.97
2018-06-02T08:35:41.720Z,24.87
2018-06-02T08:38:09.285Z,23.80
2018-06-02T08:40:36.829Z,23.80
2018-06-02T08:43:04.375Z,22.90
2018-06-02T08:45:31.902Z,24.27
2018-06-02T08:47:59.454Z,24.23
2018-06-02T08:50:26.984Z,24.67
2018-06-02T08:52:54.535Z,25.40
2018-06-02T08:55:22.081Z,25.37
2018-06-02T08:57:49.625Z,26.40
2018-06-02T09:00:17.156Z,25.97
2018-06-02T09:02:44.699Z,25.70
2018-06-02T09:05:12.243Z,26.47
2018-06-02T09:07:40.558Z,30.40
2018-06-02T09:10:08.096Z,30.87
2018-06-02T09:12:36.421Z,32.17
2018-06-02T09:15:03.968Z,32.63
2018-06-02T09:17:31.538Z,29.93
2018-06-02T09:19:59.071Z,29.07
2018-06-02T09:22:26.631Z,28.77
2018-06-02T09:24:54.178Z,31.13
2018-06-02T09:27:21.729Z,28.23
2018-06-02T09:29:49.282Z,29.63
2018-06-02T09:32:17.586Z,30.50
2018-06-02T09:34:45.157Z,30.53
2018-06-02T09:37:12.781Z,30.00
2018-06-02T09:39:40.314Z,30.10
2018-06-02T09:42:07.851Z,31.07
2018-06-02T09:44:35.415Z,31.53
2018-06-02T09:47:02.958Z,29.93
2018-06-02T09:49:30.521Z,29.17
2018-06-02T09:51:58.069Z,30.37
2018-06-02T09:54:25.609Z,29.00
2018-06-02T09:56:54.177Z,30.33
2018-06-02T09:59:22.495Z,28.47
2018-06-02T10:01:50.031Z,28.93
2018-06-02T10:04:17.587Z,28.83
2018-06-02T10:06:45.127Z,29.23
2018-06-02T10:09:12.665Z,29.20
2018-06-02T10:11:40.980Z,30.47
2018-06-02T10:14:08.536Z,31.00
2018-06-02T10:16:36.063Z,29.37
2018-06-02T10:19:04.373Z,29.13
2018-06-02T10:21:31.970Z,26.63
2018-06-02T10:23:59.482Z,25.50
2018-06-02T10:26:27.035Z,27.00
2018-06-02T10:28:54.576Z,26.40
2018-06-02T10:31:22.879Z,26.63
2018-06-02T10:33:50.458Z,25.70
2018-06-02T10:36:17.994Z,25.97
2018-06-02T10:38:45.525Z,24.73
2018-06-02T10:41:13.083Z,24.07
2018-06-02T10:43:40.616Z,23.87
2018-06-02T10:46:08.176Z,23.63
2018-06-02T10:48:35.715Z,23.77
2018-06-02T10:51:03.264Z,23.63
2018-06-02T10:53:30.811Z,20.23
2018-06-02T10:55:58.440Z,21.63
2018-06-02T10:58:25.909Z,22.03
2018-06-02T11:00:54.207Z,19.73
2018-06-02T11:03:21.743Z,16.97
2018-06-02T11:05:49.284Z,17.07
2018-06-02T11:08:16.849Z,16.10
2018-06-02T11:10:45.151Z,16.40
2018-06-02T11:13:12.735Z,16.67
2018-06-02T11:15:40.285Z,14.97
2018-06-02T11:18:07.830Z,14.90
2018-06-02T11:20:35.373Z,14.30
2018-06-02T11:23:03.681Z,15.57
2018-06-02T11:25:31.258Z,13.93
2018-06-02T11:27:58.787Z,13.63
2018-06-02T11:30:26.330Z,12.97
2018-06-02T11:32:53.872Z,12.67
2018-06-02T11:35:22.205Z,12.73
2018-06-02T11:37:49.759Z,11.93
2018-06-02T11:40:17.300Z,12.03
2018-06-02T11:42:44.852Z,11.23
2018-06-02T11:45:12.381Z,11.60
2018-06-02T11:47:39.903Z,10.23
2018-06-02T11:50:07.423Z,9.70
2018-06-02T11:52:34.958Z,10.17
2018-06-02T11:55:02.508Z,10.47
2018-06-02T11:57:30.037Z,10.27
2018-06-02T11:59:57.551Z,8.80
2018-06-02T12:02:25.832Z,9.10
2018-06-02T12:04:53.370Z,8.23
2018-06-02T12:07:20.933Z,8.80
2018-06-02T12:09:49.228Z,8.30
2018-06-02T12:12:17.525Z,8.67
2018-06-02T12:14:45.046Z,7.73
2018-06-02T12:17:12.597Z,7.30
2018-06-02T12:19:40.128Z,6.90
2018-06-02T12:22:07.672Z,7.30
2018-06-02T12:24:35.216Z,6.87
2018-06-02T12:27:02.797Z,7.70
2018-06-02T12:29:30.394Z,7.63
2018-06-02T12:31:57.913Z,7.30
2018-06-02T12:34:25.470Z,6.80
2018-06-02T12:36:52.997Z,7.20
2018-06-02T12:39:20.541Z,6.53
2018-06-02T12:41:48.871Z,7.03
2018-06-02T12:44:16.424Z,6.57
2018-06-02T12:46:44.757Z,6.47
2018-06-02T12:49:13.087Z,6.80
2018-06-02T12:51:40.624Z,6.13
2018-06-02T12:54:08.157Z,6.83
2018-06-02T12:56:36.480Z,7.10
2018-06-02T12:59:04.023Z,7.97
2018-06-02T13:01:31.553Z,7.93
2018-06-02T13:03:59.093Z,8.30
2018-06-02T13:06:26.638Z,8.27
2018-06-02T13:08:54.203Z,7.73
2018-06-02T13:11:21.741Z,9.40
2018-06-02T13:13:49.273Z,8.30
2018-06-02T13:16:16.827Z,8.00
2018-06-02T13:18:44.355Z,7.77
2018-06-02T13:21:12.712Z,8.90
2018-06-02T13:23:40.259Z,8.50
2018-06-02T13:26:07.786Z,8.90
2018-06-02T13:28:35.339Z,8.33
2018-06-02T13:31:02.900Z,8.00
2018-06-02T13:33:30.457Z,7.77
2018-06-02T13:35:57.992Z,8.03
2018-06-02T13:38:26.325Z,7.53
2018-06-02T13:40:53.891Z,7.33
2018-06-02T13:43:24.499Z,7.50
2018-06-02T13:45:52.065Z,7.80
2018-06-02T13:48:19.631Z,6.90
2018-06-02T13:50:47.247Z,7.50
2018-06-02T13:53:14.808Z,7.87
2018-06-02T13:55:42.397Z,7.93
2018-06-02T13:58:09.922Z,6.97
2018-06-02T14:00:37.473Z,7.00
2018-06-02T14:03:05.029Z,7.27
2018-06-02T14:05:32.575Z,7.30
2018-06-02T14:08:00.867Z,8.10
2018-06-02T14:10:29.169Z,7.83
2018-06-02T14:12:56.722Z,8.63
2018-06-02T14:15:24.265Z,7.87
2018-06-02T14:17:52.570Z,8.20
2018-06-02T14:20:20.144Z,7.03
2018-06-02T14:22:48.463Z,7.57
2018-06-02T14:25:16.777Z,7.23
2018-06-02T14:27:44.321Z,6.80
2018-06-02T14:30:11.887Z,6.80
2018-06-02T14:32:39.415Z,6.83
2018-06-02T14:35:07.753Z,6.33
2018-06-02T14:37:35.305Z,6.70
2018-06-02T14:40:02.868Z,6.00
2018-06-02T14:42:30.470Z,5.87
2018-06-02T14:44:58.815Z,5.63
2018-06-02T14:47:27.113Z,5.40
2018-06-02T14:49:54.681Z,5.03
2018-06-02T14:52:23.009Z,5.60
2018-06-02T14:54:50.635Z,5.13
2018-06-02T14:57:18.191Z,5.73
2018-06-02T14:59:46.476Z,5.40
2018-06-02T15:02:14.022Z,6.00
2018-06-02T15:04:41.557Z,6.03
2018-06-02T15:07:09.091Z,6.03
2018-06-02T15:09:36.627Z,6.07
2018-06-02T15:12:04.161Z,7.10
2018-06-02T15:14:32.463Z,6.50
2018-06-02T15:16:59.993Z,7.17
2018-06-02T15:19:27.510Z,6.47
2018-06-02T15:21:55.047Z,7.70
2018-06-02T15:24:22.597Z,7.60
2018-06-02T15:26:50.133Z,8.23
2018-06-02T15:29:17.664Z,7.70
2018-06-02T15:31:45.188Z,8.07
2018-06-02T15:34:12.776Z,8.23
2018-06-02T15:36:40.420Z,7.57
2018-06-02T15:39:08.678Z,7.47
2018-06-02T15:41:36.202Z,8.43
2018-06-02T15:44:03.744Z,8.30
2018-06-02T15:46:32.051Z,8.13
2018-06-02T15:48:59.595Z,7.93
2018-06-02T15:51:27.138Z,8.37
2018-06-02T15:53:55.432Z,8.20
2018-06-02T15:56:23.743Z,7.60
2018-06-02T15:58:51.295Z,8.90
2018-06-02T16:01:18.830Z,8.37
2018-06-02T16:03:46.384Z,8.97
2018-06-02T16:06:13.918Z,9.17
2018-06-02T16:08:42.225Z,8.97
2018-06-02T16:11:09.778Z,8.67
2018-06-02T16:13:37.321Z,9.57
2018-06-02T16:16:05.622Z,9.53
2018-06-02T16:18:33.157Z,11.93
2018-06-02T16:21:01.723Z,12.10
2018-06-02T16:23:29.298Z,13.53
2018-06-02T16:25:57.604Z,15.23
2018-06-02T16:28:25.134Z,14.33
2018-06-02T16:30:53.449Z,16.43
2018-06-02T16:33:20.998Z,16.53
2018-06-02T16:35:48.572Z,17.03
2018-06-02T16:38:16.133Z,16.67
2018-06-02T16:40:43.672Z,18.07
2018-06-02T16:43:11.223Z,18.33
2018-06-02T16:45:38.770Z,18.63
2018-06-02T16:48:07.096Z,20.13
2018-06-02T16:50:34.662Z,19.67
2018-06-02T16:53:02.238Z,21.77
2018-06-02T16:55:29.820Z,21.63
2018-06-02T16:57:57.353Z,20.97
2018-06-02T17:00:24.918Z,22.63
2018-06-02T17:02:52.466Z,23.23
2018-06-02T17:05:20.053Z,21.97
2018-06-02T17:07:47.656Z,22.87
2018-06-02T17:10:15.186Z,22.33
2018-06-02T17:12:43.499Z,23.43
2018-06-02T17:15:11.034Z,22.07
2018-06-02T17:17:38.583Z,22.83
2018-06-02T17:20:06.935Z,22.37
2018-06-02T17:22:34.449Z,24.00
2018-06-02T17:25:01.985Z,26.70
2018-06-02T17:27:29.513Z,25.03
2018-06-02T17:29:57.869Z,23.60
2018-06-02T17:32:25.412Z,23.23
2018-06-02T17:34:52.952Z,28.30
2018-06-02T17:37:20.497Z,28.80
2018-06-02T17:39:48.058Z,24.53
2018-06-02T17:42:15.601Z,24.77
2018-06-02T17:44:43.911Z,25.70
2018-06-02T17:47:11.453Z,26.33
2018-06-02T17:49:39.020Z,25.33
2018-06-02T17:52:06.549Z,22.80
2018-06-02T17:54:34.113Z,22.17
2018-06-02T17:57:01.672Z,23.27
2018-06-02T17:59:29.303Z,21.80
2018-06-02T18:01:56.847Z,22.30
2018-06-02T18:04:24.408Z,22.83
2018-06-02T18:06:51.948Z,23.03
2018-06-02T18:09:19.496Z,21.07
2018-06-02T18:11:47.076Z,22.23
2018-06-02T18:14:14.620Z,21.27
2018-06-02T18:16:42.176Z,22.50
2018-06-02T18:19:09.736Z,21.60
2018-06-02T18:21:37.294Z,20.60
2018-06-02T18:24:04.840Z,21.60
2018-06-02T18:26:32.378Z,20.20
2018-06-02T18:28:59.948Z,21.50
2018-06-02T18:31:28.247Z,22.43
2018-06-02T18:33:55.801Z,21.77
2018-06-02T18:36:23.350Z,21.47
2018-06-02T18:38:50.900Z,22.33
2018-06-02T18:41:18.456Z,21.20
2018-06-02T18:43:45.986Z,21.17
2018-06-02T18:46:13.528Z,21.10
2018-06-02T18:48:41.846Z,20.53
2018-06-02T18:51:10.163Z,22.33
2018-06-02T18:53:37.743Z,22.73
2018-06-02T18:56:05.270Z,23.67
2018-06-02T18:58:32.829Z,24.43
2018-06-02T19:01:00.405Z,21.67
2018-06-02T19:03:27.943Z,22.93
2018-06-02T19:05:55.483Z,22.50
2018-06-02T19:08:23.061Z,22.20
2018-06-02T19:10:50.829Z,22.57
2018-06-02T19:13:18.392Z,21.67
2018-06-02T19:15:45.927Z,23.43
2018-06-02T19:18:14.260Z,24.10
2018-06-02T19:20:41.797Z,23.20
2018-06-02T19:23:09.348Z,23.90
2018-06-02T19:25:37.638Z,25.00
2018-06-02T19:28:05.630Z,22.77
2018-06-02T19:30:33.184Z,24.67
2018-06-02T19:33:00.732Z,24.63
2018-06-02T19:35:28.390Z,24.50
2018-06-02T19:37:55.928Z,24.77
2018-06-02T19:40:23.484Z,25.57
2018-06-02T19:42:51.043Z,26.33
2018-06-02T19:45:18.586Z,27.40
2018-06-02T19:47:46.104Z,28.77
2018-06-02T19:50:13.651Z,27.67
2018-06-02T19:52:41.199Z,28.67
2018-06-02T19:55:08.750Z,27.60
2018-06-02T19:57:36.300Z,29.50
2018-06-02T20:00:03.867Z,29.33
2018-06-02T20:02:31.426Z,28.57
2018-06-02T20:04:59.021Z,28.47
2018-06-02T20:07:26.582Z,28.80
2018-06-02T20:09:54.142Z,29.57
2018-06-02T20:12:21.668Z,29.17
2018-06-02T20:14:49.287Z,29.67
2018-06-02T20:17:16.832Z,29.67
2018-06-02T20:19:45.185Z,29.30
2018-06-02T20:22:12.744Z,30.70
2018-06-02T20:24:40.305Z,31.20
2018-06-02T20:27:07.861Z,30.37
2018-06-02T20:29:35.405Z,29.40
2018-06-02T20:32:03.019Z,31.77
2018-06-02T20:34:31.329Z,30.47
2018-06-02T20:36:58.879Z,30.90
2018-06-02T20:39:26.431Z,30.70
2018-06-02T20:41:53.975Z,32.03
2018-06-02T20:44:21.528Z,29.97
2018-06-02T20:46:49.869Z,31.73
2018-06-02T20:49:17.416Z,31.43
2018-06-02T20:51:45.744Z,33.13
2018-06-02T20:54:13.288Z,33.33
2018-06-02T20:56:40.849Z,32.27
2018-06-02T20:59:09.159Z,33.27
2018-06-02T21:01:36.688Z,32.37
2018-06-02T21:04:04.998Z,33.70
2018-06-02T21:06:32.535Z,31.17
2018-06-02T21:09:00.129Z,33.07
2018-06-02T21:11:27.660Z,31.40
2018-06-02T21:13:55.200Z,32.93
2018-06-02T21:16:22.748Z,33.90
2018-06-02T21:18:51.091Z,33.00
2018-06-02T21:21:18.622Z,34.47
2018-06-02T21:23:46.168Z,35.83
2018-06-02T21:26:13.770Z,35.47
2018-06-02T21:28:41.314Z,33.77
2018-06-02T21:31:08.858Z,33.67
2018-06-02T21:33:36.419Z,33.60
2018-06-02T21:36:03.968Z,36.33
2018-06-02T21:38:31.617Z,34.27
2018-06-02T21:40:59.176Z,35.23
2018-06-02T21:43:27.481Z,33.73
2018-06-02T21:45:55.028Z,33.77
2018-06-02T21:48:22.570Z,34.70
2018-06-02T21:50:50.895Z,33.87
2018-06-02T21:53:18.486Z,37.03
2018-06-02T21:55:46.800Z,35.60
2018-06-02T21:58:14.354Z,35.97
2018-06-02T22:00:41.878Z,35.33
2018-06-02T22:03:09.434Z,35.43
2018-06-02T22:05:36.994Z,34.70
2018-06-02T22:08:04.540Z,34.50
2018-06-02T22:10:32.085Z,35.40
2018-06-02T22:12:59.620Z,36.87
2018-06-02T22:15:27.145Z,36.17
2018-06-02T22:17:55.494Z,36.63
2018-06-02T22:20:23.051Z,36.13
2018-06-02T22:22:50.582Z,35.83
2018-06-02T22:25:18.533Z,36.57
2018-06-02T22:27:46.139Z,36.77
2018-06-02T22:30:13.707Z,36.60
2018-06-02T22:32:41.233Z,36.00
2018-06-02T22:35:08.815Z,38.27
2018-06-02T22:37:36.384Z,35.73
2018-06-02T22:40:03.942Z,36.10
2018-06-02T22:42:31.471Z,37.27
2018-06-02T22:44:59.012Z,35.43
2018-06-02T22:47:26.562Z,36.83
2018-06-02T22:49:54.110Z,38.23
2018-06-02T22:52:21.656Z,37.70
2018-06-02T22:54:49.971Z,38.80
2018-06-02T22:57:17.498Z,37.53
2018-06-02T22:59:45.800Z,38.13
2018-06-02T23:02:13.331Z,40.40
2018-06-02T23:04:41.660Z,38.90
2018-06-02T23:07:09.200Z,40.03
2018-06-02T23:09:36.758Z,39.10
2018-06-02T23:12:05.051Z,37.87
2018-06-02T23:14:32.596Z,39.47
2018-06-02T23:17:00.129Z,39.30
2018-06-02T23:19:27.658Z,37.67
2018-06-02T23:21:55.223Z,37.40
2018-06-02T23:24:23.524Z,37.23
2018-06-02T23:26:51.076Z,38.23
2018-06-02T23:29:18.648Z,38.90
2018-06-02T23:31:46.200Z,39.23
2018-06-02T23:34:13.737Z,38.20
2018-06-02T23:36:42.038Z,38.27
2018-06-02T23:39:09.600Z,38.00
2018-06-02T23:41:37.143Z,41.23
2018-06-02T23:44:04.761Z,38.17
2018-06-02T23:46:32.360Z,39.60
2018-06-02T23:48:59.909Z,40.53
2018-06-02T23:51:28.203Z,37.50
2018-06-02T23:53:55.736Z,38.27
2018-06-02T23:56:23.313Z,40.00
2018-06-02T23:58:51.614Z,39.70
